Time;durP1;ratioP1;P1;durP2;ratioP2;P2;SDS_P1;SDS_P2;PMS_P1;PMS_P2;Temp;Humidity;BMP_temperature;BMP_pressure;BME280_temperature;BME280_humidity;BME280_pressure;Samples;Min_cycle;Max_cycle;Signal;HPM_P1;HPM_P2
2023/10/25 00:01:48;;;;;;;9.10;8.90;;;8.30;99.90;;;;;;5015420;28;20827;-69
2023/10/25 00:04:15;;;;;;;9.60;9.40;;;8.30;99.90;;;;;;5014573;28;20524;-70
2023/10/25 00:06:42;;;;;;;8.07;7.97;;;8.30;99.90;;;;;;5019690;28;20501;-71
2023/10/25 00:09:10;;;;;;;7.97;7.87;;;8.30;99.90;;;;;;5028309;28;20865;-70
2023/10/25 00:11:37;;;;;;;8.33;8.23;;;8.40;99.90;;;;;;5020482;28;20490;-70
2023/10/25 00:14:04;;;;;;;9.43;9.23;;;8.30;99.90;;;;;;5007724;28;20843;-70
2023/10/25 00:16:31;;;;;;;7.87;7.77;;;8.30;99.90;;;;;;5016037;28;20500;-70
2023/10/25 00:18:57;;;;;;;8.60;8.50;;;8.40;99.90;;;;;;5025816;28;20449;-70
2023/10/25 00:21:24;;;;;;;8.53;8.43;;;8.40;99.90;;;;;;5025963;27;20458;-70
2023/10/25 00:23:51;;;;;;;8.30;8.20;;;8.40;99.90;;;;;;5020207;28;20573;-70
2023/10/25 00:26:20;;;;;;;8.00;7.90;;;8.40;99.90;;;;;;5024842;28;20958;-70
2023/10/25 00:28:47;;;;;;;8.07;7.97;;;8.50;99.90;;;;;;5016137;28;20469;-71
2023/10/25 00:31:14;;;;;;;8.40;8.30;;;8.50;99.90;;;;;;5025199;28;20456;-72
2023/10/25 00:33:40;;;;;;;8.70;8.60;;;8.60;99.90;;;;;;5023207;28;20490;-69
2023/10/25 00:36:07;;;;;;;8.47;8.37;;;8.60;99.90;;;;;;5025345;27;20711;-71
2023/10/25 00:38:34;;;;;;;8.13;8.03;;;8.70;99.90;;;;;;5026645;27;20931;-69
2023/10/25 00:41:01;;;;;;;7.97;7.87;;;8.70;99.90;;;;;;5025752;27;20488;-70
2023/10/25 00:43:29;;;;;;;7.37;7.27;;;8.70;99.90;;;;;;5007155;28;20504;-69
2023/10/25 00:46:12;;;;;;;8.07;7.97;;;8.80;99.90;;;;;;5026374;28;20533;-71
2023/10/25 00:48:41;;;;;;;8.40;8.30;;;8.80;99.90;;;;;;5024622;28;20472;-69
2023/10/25 00:51:10;;;;;;;7.83;7.73;;;8.90;99.90;;;;;;5026292;27;20556;-70
2023/10/25 00:53:39;;;;;;;8.10;8.00;;;8.90;99.90;;;;;;5014686;28;20469;-70
2023/10/25 00:56:08;;;;;;;8.40;8.30;;;8.90;99.90;;;;;;5025890;28;20472;-71
2023/10/25 00:58:37;;;;;;;8.03;7.93;;;8.90;99.90;;;;;;5018038;28;20968;-71
2023/10/25 01:01:05;;;;;;;7.40;7.30;;;8.90;99.90;;;;;;5045754;27;20453;-69
2023/10/25 01:03:32;;;;;;;7.70;7.60;;;8.90;99.90;;;;;;5017079;28;20559;-70
2023/10/25 01:06:01;;;;;;;7.60;7.50;;;8.90;99.90;;;;;;5023918;27;20464;-70
2023/10/25 01:08:29;;;;;;;7.60;7.50;;;8.90;99.90;;;;;;5018645;28;20890;-70
2023/10/25 01:10:56;;;;;;;7.87;7.77;;;8.80;99.90;;;;;;5013385;28;20469;-70
2023/10/25 01:13:23;;;;;;;8.57;8.47;;;8.80;99.90;;;;;;5024384;28;20939;-71
2023/10/25 01:15:51;;;;;;;8.57;8.47;;;8.70;99.90;;;;;;5021024;27;20538;-71
2023/10/25 01:18:18;;;;;;;8.77;8.67;;;8.70;99.90;;;;;;5017077;28;20474;-71
2023/10/25 01:20:45;;;;;;;8.33;8.23;;;8.70;99.90;;;;;;5024568;27;20457;-70
2023/10/25 01:23:13;;;;;;;8.07;7.97;;;8.60;99.90;;;;;;5019382;27;20488;-70
2023/10/25 01:25:42;;;;;;;8.20;8.10;;;8.60;99.90;;;;;;5018540;27;20485;-69
2023/10/25 01:28:08;;;;;;;8.67;8.57;;;8.60;99.90;;;;;;5011223;28;20499;-71
2023/10/25 01:30:35;;;;;;;8.20;8.10;;;8.60;99.90;;;;;;5040277;27;20734;-70
2023/10/25 01:33:03;;;;;;;8.40;8.30;;;8.60;99.90;;;;;;5022209;28;20469;-70
2023/10/25 01:35:30;;;;;;;8.27;8.17;;;8.60;99.90;;;;;;5025600;28;20457;-71
2023/10/25 01:37:57;;;;;;;8.10;8.00;;;8.60;99.90;;;;;;5025218;27;20449;-70
2023/10/25 01:40:25;;;;;;;8.40;8.30;;;8.60;99.90;;;;;;5016005;27;20485;-71
2023/10/25 01:42:54;;;;;;;7.60;7.50;;;8.60;99.90;;;;;;5014033;28;20469;-70
2023/10/25 01:45:22;;;;;;;8.27;8.17;;;8.60;99.90;;;;;;5033441;27;20572;-70
2023/10/25 01:47:49;;;;;;;8.00;7.90;;;8.50;99.90;;;;;;5016091;28;20472;-71
2023/10/25 01:50:16;;;;;;;8.87;8.70;;;8.50;99.90;;;;;;5025593;27;20469;-71
2023/10/25 01:52:42;;;;;;;8.33;8.23;;;8.50;99.90;;;;;;5024024;28;20445;-71
2023/10/25 01:55:09;;;;;;;8.70;8.60;;;8.50;99.90;;;;;;5029745;27;20469;-70
2023/10/25 01:57:37;;;;;;;9.00;8.80;;;8.50;99.90;;;;;;5033412;27;20584;-70
2023/10/25 02:00:06;;;;;;;8.60;8.50;;;8.40;99.90;;;;;;5013469;27;20502;-70
2023/10/25 02:02:33;;;;;;;8.40;8.30;;;8.40;99.90;;;;;;5023200;28;20465;-71
2023/10/25 02:05:00;;;;;;;7.93;7.83;;;8.40;99.90;;;;;;5020498;27;20494;-69
2023/10/25 02:07:27;;;;;;;7.50;7.40;;;8.40;99.90;;;;;;5012363;28;20474;-70
2023/10/25 02:09:54;;;;;;;7.90;7.80;;;8.40;99.90;;;;;;5024238;27;20506;-70
2023/10/25 02:12:21;;;;;;;8.23;8.13;;;8.30;99.90;;;;;;5017067;27;20468;-70
2023/10/25 02:14:49;;;;;;;8.50;8.40;;;8.20;99.90;;;;;;5016996;28;20485;-71
2023/10/25 02:17:17;;;;;;;7.70;7.60;;;8.30;99.90;;;;;;5024745;28;20457;-70
2023/10/25 02:19:45;;;;;;;7.13;7.03;;;8.30;99.90;;;;;;5012540;28;20461;-70
2023/10/25 02:22:12;;;;;;;7.53;7.43;;;8.30;99.90;;;;;;5039242;27;20983;-70
2023/10/25 02:24:39;;;;;;;7.80;7.70;;;8.30;99.90;;;;;;5012428;28;20565;-70
2023/10/25 02:27:06;;;;;;;6.90;6.80;;;8.30;99.90;;;;;;5028032;27;20461;-69
2023/10/25 02:29:33;;;;;;;7.10;7.00;;;8.30;99.90;;;;;;5023691;28;20468;-69
2023/10/25 02:32:02;;;;;;;6.80;6.70;;;8.30;99.90;;;;;;5037183;27;20466;-69
2023/10/25 02:34:31;;;;;;;7.83;7.73;;;8.40;99.90;;;;;;5010674;27;20476;-69
2023/10/25 02:36:58;;;;;;;7.40;7.30;;;8.50;99.90;;;;;;5019883;28;20870;-69
2023/10/25 02:42:06;;;;;;;6.87;6.77;;;8.50;99.90;;;;;;5012231;27;21000;-70
2023/10/25 02:44:33;;;;;;;6.90;6.80;;;8.50;99.90;;;;;;5019152;28;20501;-71
2023/10/25 02:47:01;;;;;;;6.57;6.47;;;8.50;99.90;;;;;;5019548;27;20516;-70
2023/10/25 02:49:28;;;;;;;6.67;6.57;;;8.50;99.90;;;;;;5023851;28;20522;-69
2023/10/25 02:51:55;;;;;;;6.50;6.40;;;8.60;99.90;;;;;;5021140;28;20456;-70
2023/10/25 02:54:23;;;;;;;6.80;6.70;;;8.60;99.90;;;;;;5016528;28;20466;-70
2023/10/25 02:56:51;;;;;;;7.40;7.30;;;8.60;99.90;;;;;;5017495;28;20802;-71
2023/10/25 02:59:18;;;;;;;7.30;7.20;;;8.60;99.90;;;;;;5015397;28;20523;-71
2023/10/25 03:01:45;;;;;;;7.67;7.57;;;8.60;99.90;;;;;;5022920;28;20467;-69
2023/10/25 03:04:13;;;;;;;6.50;6.40;;;8.60;99.90;;;;;;5012437;28;20698;-70
2023/10/25 03:06:40;;;;;;;6.40;6.30;;;8.60;99.90;;;;;;5023643;28;21023;-72
2023/10/25 03:09:07;;;;;;;6.33;6.23;;;8.60;99.90;;;;;;5014532;28;20485;-70
2023/10/25 03:11:34;;;;;;;5.97;5.87;;;8.60;99.90;;;;;;5017337;28;20500;-72
2023/10/25 03:14:00;;;;;;;6.47;6.37;;;8.50;99.90;;;;;;5015382;28;20845;-70
2023/10/25 03:16:27;;;;;;;6.63;6.53;;;8.50;99.90;;;;;;5022683;27;20469;-70
2023/10/25 03:18:54;;;;;;;6.50;6.40;;;8.50;99.90;;;;;;5016683;28;20507;-70
2023/10/25 03:21:22;;;;;;;6.40;6.30;;;8.50;99.90;;;;;;5021650;28;20955;-70
2023/10/25 03:23:50;;;;;;;6.50;6.40;;;8.40;99.90;;;;;;5024681;28;20477;-71
2023/10/25 03:26:16;;;;;;;6.57;6.47;;;8.40;99.90;;;;;;5023581;28;20510;-69
2023/10/25 03:28:43;;;;;;;6.40;6.30;;;8.40;99.90;;;;;;5013293;28;20466;-70
2023/10/25 03:31:11;;;;;;;6.07;5.97;;;8.40;99.90;;;;;;5020950;28;20457;-70
2023/10/25 03:33:38;;;;;;;5.80;5.70;;;8.30;99.90;;;;;;5017747;28;20463;-69
2023/10/25 03:36:05;;;;;;;6.33;6.23;;;8.30;99.90;;;;;;5049449;27;20455;-71
2023/10/25 03:38:35;;;;;;;6.33;6.23;;;8.30;99.90;;;;;;5015159;27;20975;-70
2023/10/25 03:41:03;;;;;;;6.00;5.90;;;8.30;99.90;;;;;;5014903;28;20859;-71
2023/10/25 03:43:31;;;;;;;5.67;5.57;;;8.30;99.90;;;;;;5013543;28;20466;-70
2023/10/25 03:46:02;;;;;;;5.70;5.60;;;8.20;99.90;;;;;;5023137;28;20671;-71
2023/10/25 03:48:29;;;;;;;6.30;6.20;;;8.20;99.90;;;;;;5023222;28;20536;-70
2023/10/25 03:50:55;;;;;;;5.80;5.70;;;8.30;99.90;;;;;;5022490;28;21680;-71
2023/10/25 03:53:22;;;;;;;5.80;5.70;;;8.30;99.90;;;;;;5018544;28;20468;-72
2023/10/25 03:55:57;;;;;;;6.00;5.90;;;8.40;99.90;;;;;;5010317;28;20465;-70
2023/10/25 03:58:25;;;;;;;5.80;5.70;;;8.40;99.90;;;;;;5016708;28;20468;-72
2023/10/25 04:00:59;;;;;;;6.37;6.27;;;8.40;99.90;;;;;;5031346;28;20572;-71
2023/10/25 04:03:26;;;;;;;5.70;5.60;;;8.40;99.90;;;;;;5014146;28;20468;-71
2023/10/25 04:05:53;;;;;;;5.77;5.67;;;8.40;99.90;;;;;;5022667;28;20995;-70
2023/10/25 04:08:20;;;;;;;6.80;6.70;;;8.50;99.90;;;;;;5014663;28;20598;-71
2023/10/25 04:10:51;;;;;;;5.97;5.87;;;8.50;99.90;;;;;;5038464;28;20931;-69
2023/10/25 04:13:20;;;;;;;5.90;5.80;;;8.50;99.90;;;;;;5011315;28;20831;-69
2023/10/25 04:15:54;;;;;;;6.00;5.90;;;8.50;99.90;;;;;;5014959;28;20515;-71
2023/10/25 04:18:24;;;;;;;5.90;5.80;;;8.50;99.90;;;;;;5016557;28;20552;-70
2023/10/25 04:20:51;;;;;;;5.90;5.80;;;8.50;99.90;;;;;;5020698;28;20566;-70
2023/10/25 04:23:18;;;;;;;6.47;6.37;;;8.50;99.90;;;;;;5020624;28;20522;-70
2023/10/25 04:25:45;;;;;;;6.93;6.83;;;8.50;99.90;;;;;;5022215;28;20485;-70
2023/10/25 04:28:12;;;;;;;6.97;6.87;;;8.60;99.90;;;;;;5010844;28;20469;-71
2023/10/25 04:30:41;;;;;;;6.40;6.30;;;8.60;99.90;;;;;;5014527;28;20767;-70
2023/10/25 04:33:08;;;;;;;7.20;7.10;;;8.60;99.90;;;;;;5046488;28;20496;-70
2023/10/25 04:35:34;;;;;;;7.23;7.13;;;8.60;99.90;;;;;;5017148;28;20459;-69
2023/10/25 04:38:02;;;;;;;7.20;7.10;;;8.60;99.90;;;;;;5020217;28;20461;-70
2023/10/25 04:40:29;;;;;;;6.83;6.73;;;8.60;99.90;;;;;;5007629;28;20496;-70
2023/10/25 04:42:56;;;;;;;7.40;7.30;;;8.50;99.90;;;;;;5021594;28;20959;-71
2023/10/25 04:45:23;;;;;;;7.50;7.40;;;8.60;99.90;;;;;;5013670;28;20524;-70
2023/10/25 04:47:51;;;;;;;7.70;7.60;;;8.50;99.90;;;;;;5030515;28;20961;-70
2023/10/25 04:50:19;;;;;;;7.43;7.33;;;8.50;99.90;;;;;;5021467;28;20529;-71
2023/10/25 04:52:45;;;;;;;6.27;6.17;;;8.50;99.90;;;;;;5016902;28;20552;-69
2023/10/25 04:55:12;;;;;;;7.40;7.30;;;8.50;99.90;;;;;;5006987;28;20927;-70
2023/10/25 04:57:39;;;;;;;7.00;6.90;;;8.50;99.90;;;;;;5016527;28;20598;-70
2023/10/25 05:00:09;;;;;;;7.60;7.50;;;8.50;99.90;;;;;;5021276;28;20869;-68
2023/10/25 05:02:36;;;;;;;7.00;6.90;;;8.50;99.90;;;;;;5015582;27;20499;-70
2023/10/25 05:05:06;;;;;;;6.70;6.60;;;8.50;99.90;;;;;;5014884;28;20572;-69
2023/10/25 05:07:34;;;;;;;6.40;6.30;;;8.40;99.90;;;;;;5034649;27;20466;-68
2023/10/25 05:10:01;;;;;;;6.87;6.77;;;8.40;99.90;;;;;;5017589;27;20461;-71
2023/10/25 05:12:37;;;;;;;6.40;6.30;;;8.40;99.90;;;;;;5016250;28;20461;-70
2023/10/25 05:15:05;;;;;;;6.10;6.00;;;8.40;99.90;;;;;;5017918;28;20469;-70
2023/10/25 05:17:33;;;;;;;6.77;6.67;;;8.30;99.90;;;;;;5022949;27;20460;-69
2023/10/25 05:20:00;;;;;;;6.50;6.40;;;8.40;99.90;;;;;;5012639;28;20507;-70
2023/10/25 05:22:30;;;;;;;6.50;6.40;;;8.40;99.90;;;;;;5022482;27;20457;-69
2023/10/25 05:24:58;;;;;;;6.30;6.20;;;8.40;99.90;;;;;;5011101;27;20850;-70
2023/10/25 05:27:26;;;;;;;6.23;6.13;;;8.50;99.90;;;;;;5020124;28;20456;-69
2023/10/25 05:29:53;;;;;;;6.20;6.10;;;8.40;99.90;;;;;;5022333;27;20457;-69
2023/10/25 05:32:21;;;;;;;6.17;6.07;;;8.50;99.90;;;;;;5063926;27;20556;-70
2023/10/25 05:34:49;;;;;;;6.60;6.50;;;8.50;99.90;;;;;;5009682;28;20805;-70
2023/10/25 05:37:16;;;;;;;6.63;6.53;;;8.50;99.90;;;;;;5023259;28;20484;-69
2023/10/25 05:39:45;;;;;;;5.70;5.60;;;8.50;99.90;;;;;;5020576;28;20538;-69
2023/10/25 05:42:17;;;;;;;5.80;5.70;;;8.50;99.90;;;;;;5017608;27;20468;-70
2023/10/25 05:44:45;;;;;;;6.40;6.30;;;8.50;99.90;;;;;;5006276;28;20585;-70
2023/10/25 05:47:11;;;;;;;6.20;6.10;;;8.50;99.90;;;;;;5023226;28;20457;-70
2023/10/25 05:49:39;;;;;;;6.30;6.20;;;8.50;99.90;;;;;;5020079;28;20678;-69
2023/10/25 05:52:07;;;;;;;6.13;6.03;;;8.50;99.90;;;;;;5022450;27;20974;-71
2023/10/25 05:54:35;;;;;;;6.30;6.20;;;8.50;99.90;;;;;;5015974;27;20463;-70
2023/10/25 05:57:04;;;;;;;6.30;6.20;;;8.50;99.90;;;;;;5016743;27;20588;-69
2023/10/25 05:59:32;;;;;;;6.03;5.93;;;8.60;99.90;;;;;;5017082;28;20575;-69
2023/10/25 06:02:08;;;;;;;6.40;6.30;;;8.60;99.90;;;;;;5022636;27;20534;-71
2023/10/25 06:04:37;;;;;;;6.20;6.10;;;8.60;99.90;;;;;;5006247;28;20466;-68
2023/10/25 06:07:05;;;;;;;5.83;5.73;;;8.60;99.90;;;;;;5012158;28;20466;-70
2023/10/25 06:09:32;;;;;;;6.10;6.00;;;8.60;99.90;;;;;;5008136;27;20469;-71
2023/10/25 06:12:00;;;;;;;5.90;5.80;;;8.60;99.90;;;;;;5019072;28;20808;-69
2023/10/25 06:14:28;;;;;;;6.50;6.40;;;8.70;99.90;;;;;;5009519;28;20472;-69
2023/10/25 06:16:55;;;;;;;7.10;7.00;;;8.80;99.90;;;;;;5032947;27;20463;-69
2023/10/25 06:19:22;;;;;;;6.40;6.30;;;8.80;99.90;;;;;;5043275;27;20537;-71
2023/10/25 06:21:49;;;;;;;6.37;6.27;;;8.80;99.90;;;;;;5009076;27;20476;-70
2023/10/25 06:24:16;;;;;;;6.10;6.00;;;8.80;99.90;;;;;;5019464;28;20580;-71
2023/10/25 06:26:43;;;;;;;6.03;5.93;;;8.80;99.90;;;;;;5014849;27;20855;-70
2023/10/25 06:29:10;;;;;;;6.43;6.33;;;8.90;99.90;;;;;;5011887;28;20564;-69
2023/10/25 06:31:39;;;;;;;6.30;6.20;;;8.90;99.90;;;;;;5016205;27;20557;-69
2023/10/25 06:34:05;;;;;;;7.03;6.93;;;8.90;99.90;;;;;;5022326;27;20461;-69
2023/10/25 06:36:33;;;;;;;7.63;7.53;;;9.00;99.90;;;;;;5014341;28;20484;-70
2023/10/25 06:39:04;;;;;;;6.77;6.67;;;9.00;99.90;;;;;;5016402;27;20470;-70
2023/10/25 06:41:32;;;;;;;6.63;6.53;;;9.00;99.90;;;;;;5010982;28;20944;-69
2023/10/25 06:44:00;;;;;;;6.63;6.53;;;9.10;99.90;;;;;;5018724;27;20549;-69
2023/10/25 06:46:27;;;;;;;7.33;7.23;;;9.10;99.90;;;;;;5016843;28;20493;-69
2023/10/25 06:48:58;;;;;;;7.10;7.00;;;9.20;99.90;;;;;;5011803;28;20461;-70
2023/10/25 06:51:25;;;;;;;7.67;7.57;;;9.20;99.90;;;;;;5011859;28;20549;-69
2023/10/25 06:53:52;;;;;;;7.07;6.97;;;9.30;99.90;;;;;;5012692;28;23654;-71
2023/10/25 06:56:20;;;;;;;6.43;6.33;;;9.30;99.90;;;;;;5006123;28;20476;-69
2023/10/25 06:58:47;;;;;;;7.10;7.00;;;9.30;99.90;;;;;;5006851;27;20463;-70
2023/10/25 07:01:18;;;;;;;7.30;7.20;;;9.40;99.90;;;;;;5008863;28;20470;-70
2023/10/25 07:03:48;;;;;;;7.30;7.20;;;9.50;99.90;;;;;;5010092;28;21039;-71
2023/10/25 07:06:18;;;;;;;7.00;6.90;;;9.50;99.90;;;;;;5007568;28;20565;-70
2023/10/25 07:08:46;;;;;;;7.80;7.70;;;9.50;99.90;;;;;;5004858;28;20497;-70
2023/10/25 07:11:14;;;;;;;6.70;6.60;;;9.60;99.90;;;;;;5008118;28;20563;-70
2023/10/25 07:13:40;;;;;;;7.10;7.00;;;9.60;99.90;;;;;;5010606;28;20959;-70
2023/10/25 07:16:08;;;;;;;7.23;7.13;;;9.70;99.90;;;;;;5010457;28;20484;-69
2023/10/25 07:18:35;;;;;;;6.73;6.63;;;9.70;99.90;;;;;;5018062;28;20969;-69
2023/10/25 07:21:02;;;;;;;7.13;7.03;;;9.70;99.90;;;;;;5020025;28;20493;-71
2023/10/25 07:23:30;;;;;;;7.27;7.17;;;9.80;99.90;;;;;;5017960;28;20472;-70
2023/10/25 07:25:59;;;;;;;6.73;6.63;;;9.80;99.90;;;;;;5014038;28;20987;-69
2023/10/25 07:28:25;;;;;;;7.07;6.97;;;9.80;99.90;;;;;;5009161;28;21034;-70
2023/10/25 07:30:52;;;;;;;7.47;7.37;;;9.90;99.90;;;;;;5017665;28;20846;-71
2023/10/25 07:33:20;;;;;;;7.20;7.10;;;10.00;99.90;;;;;;5021783;28;20457;-71
2023/10/25 07:35:47;;;;;;;7.17;7.07;;;10.10;99.90;;;;;;5012043;28;20458;-70
2023/10/25 07:38:14;;;;;;;7.40;7.30;;;10.10;99.90;;;;;;5020762;28;20468;-70
2023/10/25 07:40:42;;;;;;;7.70;7.60;;;10.10;99.90;;;;;;5011256;28;20497;-69
2023/10/25 07:43:10;;;;;;;7.80;7.70;;;10.20;99.90;;;;;;5023302;28;20476;-70
2023/10/25 07:45:37;;;;;;;8.17;8.07;;;10.30;99.90;;;;;;5013739;28;20501;-71
2023/10/25 07:48:04;;;;;;;8.50;8.40;;;10.30;99.90;;;;;;5021141;28;20457;-71
2023/10/25 07:50:32;;;;;;;8.13;8.03;;;10.40;99.90;;;;;;5019599;28;20541;-71
2023/10/25 07:52:59;;;;;;;8.33;8.23;;;10.50;99.90;;;;;;5011263;28;20581;-70
2023/10/25 07:55:26;;;;;;;8.73;8.53;;;10.60;99.90;;;;;;5013607;28;20522;-71
2023/10/25 07:57:54;;;;;;;8.33;8.23;;;10.80;99.90;;;;;;5009883;28;20960;-70
2023/10/25 08:00:21;;;;;;;8.10;8.00;;;10.90;99.90;;;;;;5020376;28;20557;-71
2023/10/25 08:02:48;;;;;;;8.50;8.40;;;11.00;99.90;;;;;;5014931;28;20461;-70
2023/10/25 08:05:15;;;;;;;8.47;8.37;;;11.20;99.90;;;;;;5009260;28;20468;-71
2023/10/25 08:07:42;;;;;;;9.07;8.87;;;11.40;99.90;;;;;;5010065;28;20809;-72
2023/10/25 08:10:10;;;;;;;10.00;9.80;;;11.40;99.90;;;;;;5015286;28;20557;-72
2023/10/25 08:12:37;;;;;;;9.40;9.20;;;11.40;99.90;;;;;;5010355;28;20465;-71
2023/10/25 08:15:06;;;;;;;10.53;10.30;;;11.50;99.90;;;;;;5011139;28;20472;-70
2023/10/25 08:17:33;;;;;;;10.20;10.00;;;11.50;99.90;;;;;;5008109;28;20566;-70
2023/10/25 08:20:00;;;;;;;10.87;10.57;;;11.50;99.90;;;;;;5010032;28;20477;-70
2023/10/25 08:22:27;;;;;;;11.00;10.70;;;11.50;99.90;;;;;;5014017;28;20466;-72
2023/10/25 08:24:54;;;;;;;12.20;11.80;;;11.40;99.90;;;;;;5015987;28;20465;-71
2023/10/25 08:27:21;;;;;;;12.27;11.87;;;11.40;99.90;;;;;;5017193;28;20501;-71
2023/10/25 08:29:48;;;;;;;13.10;12.60;;;11.40;99.90;;;;;;5020488;28;20507;-70
2023/10/25 08:32:16;;;;;;;14.07;13.47;;;11.40;99.90;;;;;;5017316;28;20458;-70
2023/10/25 08:34:46;;;;;;;16.17;15.37;;;11.40;99.90;;;;;;5008917;28;20466;-69
2023/10/25 08:37:13;;;;;;;17.27;16.37;;;11.40;99.90;;;;;;5014617;28;20856;-70
2023/10/25 08:39:40;;;;;;;17.70;16.70;;;11.40;99.90;;;;;;5023544;28;20480;-70
2023/10/25 08:42:10;;;;;;;17.10;16.20;;;11.30;99.90;;;;;;5012865;28;20476;-70
2023/10/25 08:44:39;;;;;;;17.03;16.13;;;11.20;99.90;;;;;;5017478;28;20477;-70
2023/10/25 08:47:09;;;;;;;16.97;16.07;;;11.00;99.90;;;;;;5017656;28;21133;-70
2023/10/25 08:49:39;;;;;;;15.97;15.17;;;11.00;99.90;;;;;;5008350;28;20469;-70
2023/10/25 08:52:06;;;;;;;16.17;15.37;;;10.90;99.90;;;;;;5016930;27;20491;-71
2023/10/25 08:54:35;;;;;;;15.30;14.60;;;11.00;99.90;;;;;;5014378;28;21034;-71
2023/10/25 08:57:03;;;;;;;15.00;14.40;;;10.90;99.90;;;;;;5014125;28;20544;-68
2023/10/25 08:59:30;;;;;;;15.10;14.50;;;10.90;99.90;;;;;;5012283;27;21015;-69
2023/10/25 09:01:58;;;;;;;15.37;14.67;;;10.90;99.90;;;;;;5025374;28;21024;-70
2023/10/25 09:04:25;;;;;;;14.57;13.97;;;10.90;99.90;;;;;;5017269;27;20464;-70
2023/10/25 09:06:54;;;;;;;14.90;14.30;;;10.90;99.90;;;;;;5013285;28;20516;-71
2023/10/25 09:09:20;;;;;;;14.57;13.97;;;10.80;99.90;;;;;;5021415;28;20461;-71
2023/10/25 09:11:47;;;;;;;14.50;13.90;;;10.90;99.90;;;;;;5016114;28;20470;-71
2023/10/25 09:14:14;;;;;;;14.63;14.03;;;10.90;99.90;;;;;;5019045;28;20465;-71
2023/10/25 09:16:42;;;;;;;14.60;14.00;;;10.80;99.90;;;;;;5012666;27;20465;-69
2023/10/25 09:19:10;;;;;;;13.97;13.47;;;10.80;99.90;;;;;;5023384;27;20938;-71
2023/10/25 09:21:36;;;;;;;14.33;13.83;;;10.80;99.90;;;;;;5019274;27;20496;-70
2023/10/25 09:24:08;;;;;;;14.20;13.70;;;10.80;99.90;;;;;;5022162;27;20477;-70
2023/10/25 09:26:36;;;;;;;14.13;13.63;;;10.90;99.90;;;;;;5021280;27;20573;-69
2023/10/25 09:29:03;;;;;;;14.73;14.13;;;10.80;99.90;;;;;;5021449;27;20762;-70
2023/10/25 09:31:31;;;;;;;13.57;13.07;;;10.80;99.90;;;;;;5019219;27;20470;-69
2023/10/25 09:34:00;;;;;;;13.77;13.27;;;10.80;99.90;;;;;;5017909;27;20466;-70
2023/10/25 09:36:28;;;;;;;14.70;14.10;;;10.70;99.90;;;;;;5020108;28;20493;-71
2023/10/25 09:38:56;;;;;;;14.03;13.53;;;10.70;99.90;;;;;;5025723;27;20473;-71
2023/10/25 09:41:27;;;;;;;14.63;14.07;;;10.70;99.90;;;;;;5023687;27;20871;-70
2023/10/25 09:43:58;;;;;;;14.20;13.70;;;10.70;99.90;;;;;;5014940;27;20577;-71
2023/10/25 09:46:30;;;;;;;13.63;13.13;;;10.80;99.90;;;;;;5017506;27;20521;-69
2023/10/25 09:49:03;;;;;;;13.23;12.83;;;10.90;99.90;;;;;;5021577;28;20561;-72
2023/10/25 09:51:41;;;;;;;13.07;12.67;;;10.90;99.90;;;;;;5023145;27;20477;-70
2023/10/25 09:54:12;;;;;;;14.03;13.53;;;10.90;99.90;;;;;;5016791;27;20472;-70
2023/10/25 09:56:41;;;;;;;14.50;14.00;;;10.90;99.90;;;;;;5024626;27;20549;-72
2023/10/25 09:59:10;;;;;;;13.60;13.10;;;11.00;99.90;;;;;;5013579;27;20473;-71
2023/10/25 10:01:39;;;;;;;12.87;12.47;;;10.90;99.90;;;;;;5024468;28;20452;-71
2023/10/25 10:04:14;;;;;;;13.07;12.67;;;10.90;99.90;;;;;;5014829;27;22105;-71
2023/10/25 10:06:52;;;;;;;12.90;12.50;;;10.90;99.90;;;;;;5020680;27;20490;-72
2023/10/25 10:09:30;;;;;;;14.17;13.67;;;10.90;99.90;;;;;;5017581;27;20473;-71
2023/10/25 10:12:04;;;;;;;14.00;13.50;;;11.00;99.90;;;;;;5028369;27;20489;-71
2023/10/25 10:14:33;;;;;;;13.53;13.10;;;11.00;99.90;;;;;;5019544;28;21173;-71
2023/10/25 10:17:10;;;;;;;13.97;13.47;;;11.00;99.90;;;;;;5013710;27;20963;-71
2023/10/25 10:19:41;;;;;;;13.17;12.77;;;11.00;99.90;;;;;;5019879;28;20457;-70
2023/10/25 10:22:10;;;;;;;12.63;12.23;;;11.00;99.90;;;;;;5026469;27;20901;-71
2023/10/25 10:24:44;;;;;;;13.97;13.47;;;11.00;99.90;;;;;;5020262;27;20466;-72
2023/10/25 10:27:14;;;;;;;13.10;12.70;;;11.00;99.90;;;;;;5026468;27;20499;-71
2023/10/25 10:29:43;;;;;;;13.20;12.80;;;11.00;99.90;;;;;;5025346;27;21142;-72
2023/10/25 10:32:11;;;;;;;12.50;12.10;;;11.00;99.90;;;;;;5015894;28;20482;-72
2023/10/25 10:34:40;;;;;;;14.00;13.50;;;11.10;99.90;;;;;;5019680;27;20458;-72
2023/10/25 10:37:08;;;;;;;13.20;12.80;;;11.10;99.90;;;;;;5016361;27;20465;-71
2023/10/25 10:39:36;;;;;;;12.73;12.33;;;11.10;99.90;;;;;;5016764;27;21067;-72
2023/10/25 10:42:04;;;;;;;12.53;12.13;;;11.10;99.90;;;;;;5017955;27;20469;-70
2023/10/25 10:44:35;;;;;;;12.90;12.50;;;11.10;99.90;;;;;;5013918;27;20499;-70
2023/10/25 10:47:05;;;;;;;12.50;12.10;;;11.20;99.90;;;;;;5017009;27;20931;-71
2023/10/25 10:49:35;;;;;;;13.90;13.40;;;11.20;99.90;;;;;;5021176;27;20457;-70
2023/10/25 10:52:03;;;;;;;14.00;13.50;;;11.20;99.90;;;;;;5021052;28;20457;-70
2023/10/25 10:54:30;;;;;;;13.60;13.10;;;11.20;99.90;;;;;;5012303;28;20470;-70
2023/10/25 10:56:57;;;;;;;14.93;14.33;;;11.20;99.90;;;;;;5019531;27;20485;-70
2023/10/25 10:59:28;;;;;;;15.07;14.47;;;11.20;99.90;;;;;;5020829;27;20461;-71
2023/10/25 11:01:57;;;;;;;14.60;14.00;;;11.20;99.90;;;;;;5021117;28;20465;-69
2023/10/25 11:04:26;;;;;;;14.40;13.80;;;11.20;99.90;;;;;;5018632;27;20522;-70
2023/10/25 11:06:53;;;;;;;14.70;14.10;;;11.20;99.90;;;;;;5018839;27;20995;-71
2023/10/25 11:09:21;;;;;;;13.60;13.10;;;11.20;99.90;;;;;;5015053;28;20462;-69
2023/10/25 11:11:48;;;;;;;13.80;13.30;;;11.10;99.90;;;;;;5012520;27;20560;-70
2023/10/25 11:14:16;;;;;;;13.30;12.80;;;11.10;99.90;;;;;;5010065;27;21293;-69
2023/10/25 11:16:43;;;;;;;12.83;12.43;;;11.00;99.90;;;;;;5013661;28;20465;-72
2023/10/25 11:19:11;;;;;;;12.83;12.43;;;11.00;99.90;;;;;;5013643;28;20554;-71
2023/10/25 11:21:38;;;;;;;12.73;12.33;;;11.10;99.90;;;;;;5013155;28;20984;-70
2023/10/25 11:24:07;;;;;;;12.40;12.00;;;11.00;99.90;;;;;;5011103;28;20457;-70
2023/10/25 11:26:40;;;;;;;12.53;12.13;;;11.00;99.90;;;;;;5011334;27;20489;-70
2023/10/25 11:29:08;;;;;;;11.73;11.43;;;11.00;99.90;;;;;;5012529;28;20999;-71
2023/10/25 11:31:35;;;;;;;12.13;11.80;;;11.00;99.90;;;;;;5011085;28;21100;-72
2023/10/25 11:34:02;;;;;;;12.07;11.77;;;11.00;99.90;;;;;;5015702;27;20518;-71
2023/10/25 11:36:32;;;;;;;11.97;11.67;;;11.00;99.90;;;;;;5010679;28;20477;-71
2023/10/25 11:39:06;;;;;;;11.70;11.40;;;11.00;99.90;;;;;;5011842;28;20515;-71
2023/10/25 11:41:33;;;;;;;11.97;11.67;;;11.00;99.90;;;;;;5008561;27;20473;-70
2023/10/25 11:44:01;;;;;;;11.73;11.43;;;11.00;99.90;;;;;;5014799;27;20466;-71
2023/10/25 11:46:38;;;;;;;12.30;12.00;;;11.00;99.90;;;;;;5013595;27;20571;-70
2023/10/25 11:49:06;;;;;;;12.90;12.50;;;11.00;99.90;;;;;;5014571;28;20465;-70
2023/10/25 11:51:36;;;;;;;12.47;12.10;;;11.00;99.90;;;;;;5010243;28;20484;-69
2023/10/25 11:54:04;;;;;;;11.37;11.07;;;11.00;99.90;;;;;;5010410;28;20465;-72
2023/10/25 11:56:32;;;;;;;11.80;11.50;;;11.00;99.90;;;;;;5008734;28;20836;-70
2023/10/25 11:58:58;;;;;;;12.40;12.10;;;11.00;99.90;;;;;;5010459;28;20881;-70
2023/10/25 12:01:25;;;;;;;11.67;11.37;;;11.00;99.90;;;;;;5014001;28;20478;-72
2023/10/25 12:03:52;;;;;;;11.50;11.20;;;11.00;99.90;;;;;;5015674;28;20472;-72
2023/10/25 12:06:20;;;;;;;11.20;10.90;;;10.90;99.90;;;;;;5015345;28;20983;-72
2023/10/25 12:08:48;;;;;;;11.63;11.33;;;10.90;99.90;;;;;;5016795;28;20484;-72
2023/10/25 12:11:15;;;;;;;10.93;10.70;;;10.90;99.90;;;;;;5009039;28;20857;-72
2023/10/25 12:13:43;;;;;;;10.93;10.70;;;10.90;99.90;;;;;;5012508;27;20461;-72
2023/10/25 12:16:10;;;;;;;10.20;10.00;;;10.80;99.90;;;;;;5015338;27;20963;-72
2023/10/25 12:18:38;;;;;;;10.70;10.50;;;10.80;99.90;;;;;;5017294;27;20458;-72
2023/10/25 12:21:05;;;;;;;9.27;9.07;;;10.80;99.90;;;;;;5013471;28;20457;-72
2023/10/25 12:23:33;;;;;;;9.90;9.70;;;10.80;99.90;;;;;;5015588;27;20476;-73
2023/10/25 12:26:02;;;;;;;9.67;9.47;;;10.80;99.90;;;;;;5016638;27;20470;-73
2023/10/25 12:28:29;;;;;;;9.70;9.50;;;10.80;99.90;;;;;;5011467;27;21005;-72
2023/10/25 12:30:55;;;;;;;8.40;8.30;;;10.80;99.90;;;;;;5013401;27;20455;-71
2023/10/25 12:33:22;;;;;;;8.17;8.07;;;10.70;99.90;;;;;;5014065;27;20915;-71
2023/10/25 12:36:04;;;;;;;8.60;8.50;;;10.70;99.90;;;;;;5018916;27;20469;-73
2023/10/25 12:38:30;;;;;;;7.70;7.60;;;10.70;99.90;;;;;;5009040;28;20465;-72
2023/10/25 12:40:57;;;;;;;7.90;7.80;;;10.70;99.90;;;;;;5014014;27;20492;-73
2023/10/25 12:43:25;;;;;;;7.80;7.70;;;10.70;99.90;;;;;;5014389;27;20461;-72
2023/10/25 12:45:53;;;;;;;7.27;7.17;;;10.80;99.90;;;;;;5016593;27;20829;-72
2023/10/25 12:48:19;;;;;;;8.13;8.03;;;10.70;99.90;;;;;;5013541;27;20500;-72
2023/10/25 12:50:48;;;;;;;7.97;7.87;;;10.80;99.90;;;;;;5011074;27;20805;-72
2023/10/25 12:53:15;;;;;;;7.70;7.60;;;10.80;99.90;;;;;;5016061;27;20461;-71